Oldenburg, Mississippi
Current Conditions -  °F | °C
As of 12:35 PM on Saturday 25 Oct 2014 (Local Time) from KHEZ Reporting Station
Clear Clear  
Wind Chill: 75°   Ceiling: Unl
Heat Index: 75°   Visibility: 10mi
Dew Point: 57°   Wind: 3mph
Humidity: 53%   Direction: 10°N
Pressure: 30.16"   Gusts: NA
Location:  31.4774°N, 91.0619°W
Report Text: KHEZ 251735Z AUTO 01003KT 10SM CLR 24/14 A3016 RMK AO1
Loading
Personal Weather Stations






























Interactive Weather Map
Tropical Storm Tracking
New forecast layout! Learn more

10-Day Weather Forecast

Advertisements
Track Severe Weather on mobile